createdAt,value
2022-08-01T00:00:42.355Z,91.15
2022-08-01T00:01:42.297Z,91.15
2022-08-01T00:02:42.432Z,91.55
2022-08-01T00:03:42.253Z,91.55
2022-08-01T00:04:42.255Z,91.35
2022-08-01T00:05:42.243Z,91.65
2022-08-01T00:06:42.229Z,91.60
2022-08-01T00:07:42.229Z,91.39
2022-08-01T00:08:42.203Z,91.39
2022-08-01T00:09:42.187Z,91.60
2022-08-01T00:10:42.179Z,91.50
2022-08-01T00:11:42.168Z,91.50
2022-08-01T00:12:42.167Z,91.60
2022-08-01T00:13:42.172Z,91.60
2022-08-01T00:14:42.129Z,91.50
2022-08-01T00:15:53.788Z,91.69
2022-08-01T00:16:43.139Z,91.80
2022-08-01T00:17:42.099Z,91.69
2022-08-01T00:18:42.089Z,91.60
2022-08-01T00:19:42.074Z,91.69
2022-08-01T00:20:42.095Z,91.60
2022-08-01T00:21:42.054Z,91.89
2022-08-01T00:22:43.716Z,91.89
2022-08-01T00:23:42.031Z,92.00
2022-08-01T00:24:42.060Z,91.39
2022-08-01T00:25:42.023Z,91.39
2022-08-01T00:26:42.003Z,91.50
2022-08-01T00:27:42.024Z,91.60
2022-08-01T00:28:41.986Z,91.69
2022-08-01T00:30:10.245Z,91.50
2022-08-01T00:30:42.964Z,91.50
2022-08-01T00:31:41.934Z,91.80
2022-08-01T00:32:41.943Z,91.80
2022-08-01T00:33:41.945Z,91.69
2022-08-01T00:34:41.908Z,91.80
2022-08-01T00:35:41.911Z,92.20
2022-08-01T00:36:41.916Z,92.10
2022-08-01T00:37:41.892Z,92.10
2022-08-01T00:38:41.871Z,91.89
2022-08-01T00:39:41.881Z,91.89
2022-08-01T00:40:41.838Z,91.39
2022-08-01T00:41:41.835Z,91.39
2022-08-01T00:42:43.768Z,91.30
2022-08-01T00:43:41.819Z,91.30
2022-08-01T00:44:41.801Z,91.39
2022-08-01T00:45:41.801Z,91.60
2022-08-01T00:46:41.791Z,91.69
2022-08-01T00:47:41.766Z,91.69
2022-08-01T00:48:41.772Z,91.39
2022-08-01T00:49:41.741Z,90.89
2022-08-01T00:50:41.738Z,91.09
2022-08-01T00:51:41.733Z,91.30
2022-08-01T00:52:41.724Z,91.60
2022-08-01T00:53:51.982Z,91.39
2022-08-01T00:54:42.703Z,90.89
2022-08-01T00:55:41.706Z,90.99
2022-08-01T00:56:41.673Z,90.89
2022-08-01T00:58:01.688Z,90.99
2022-08-01T00:58:42.645Z,91.09
2022-08-01T00:59:41.627Z,91.09
2022-08-01T01:00:53.081Z,90.89
2022-08-01T01:01:46.779Z,90.69
2022-08-01T01:02:42.596Z,90.79
2022-08-01T01:03:58.484Z,90.99
2022-08-01T01:04:42.576Z,90.89
2022-08-01T01:05:41.578Z,90.49
2022-08-01T01:06:41.543Z,90.59
2022-08-01T01:07:49.728Z,90.49
2022-08-01T01:08:42.519Z,90.49
2022-08-01T01:09:41.521Z,90.49
2022-08-01T01:10:41.525Z,90.59
2022-08-01T01:11:41.492Z,90.69
2022-08-01T01:12:41.930Z,90.59
2022-08-01T01:13:50.006Z,90.89
2022-08-01T01:14:42.511Z,90.19
2022-08-01T01:15:41.456Z,90.39
2022-08-01T01:16:41.432Z,90.29
2022-08-01T01:17:50.057Z,90.49
2022-08-01T01:18:42.416Z,90.89
2022-08-01T01:19:41.409Z,90.79
2022-08-01T01:20:41.394Z,91.09
2022-08-01T01:21:41.380Z,90.99
2022-08-01T01:22:41.374Z,90.99
2022-08-01T01:23:41.385Z,90.39
2022-08-01T01:24:41.359Z,90.59
2022-08-01T01:25:41.348Z,90.59
2022-08-01T01:26:41.327Z,90.59
2022-08-01T01:27:41.317Z,90.69
2022-08-01T01:28:41.317Z,90.89
2022-08-01T01:29:58.859Z,90.99
2022-08-01T01:30:42.278Z,91.30
2022-08-01T01:31:41.274Z,91.30
2022-08-01T01:32:41.258Z,91.39
2022-08-01T01:33:47.285Z,91.19
2022-08-01T01:34:42.245Z,91.39
2022-08-01T01:35:41.243Z,91.69
2022-08-01T01:36:41.210Z,91.80
2022-08-01T01:37:41.200Z,91.89
2022-08-01T01:38:41.203Z,92.30
2022-08-01T01:39:41.181Z,92.30
2022-08-01T01:40:41.173Z,92.00
2022-08-01T01:41:41.156Z,91.80
2022-08-01T01:42:41.148Z,91.60
2022-08-01T01:43:41.140Z,91.60
2022-08-01T01:44:41.142Z,91.60
2022-08-01T01:45:41.133Z,91.89
2022-08-01T01:46:41.105Z,91.80
2022-08-01T01:47:41.106Z,91.50
2022-08-01T01:48:41.093Z,91.60
2022-08-01T01:49:41.075Z,91.80
2022-08-01T01:50:41.062Z,91.80
2022-08-01T01:51:41.051Z,91.89
2022-08-01T01:52:41.031Z,91.69
2022-08-01T01:53:41.057Z,91.30
2022-08-01T01:54:41.012Z,91.39
2022-08-01T01:55:49.030Z,91.30
2022-08-01T01:56:41.988Z,91.09
2022-08-01T01:57:40.992Z,91.09
2022-08-01T01:58:40.970Z,91.19
2022-08-01T01:59:40.978Z,91.39
2022-08-01T02:00:40.962Z,91.19
2022-08-01T02:02:06.015Z,91.19
2022-08-01T02:02:42.006Z,91.19
2022-08-01T02:03:40.963Z,91.30
2022-08-01T02:04:41.021Z,91.39
2022-08-01T02:05:40.894Z,91.60
2022-08-01T02:06:42.863Z,91.09
2022-08-01T02:07:40.884Z,91.19
2022-08-01T02:08:40.852Z,90.99
2022-08-01T02:09:40.853Z,91.19
2022-08-01T02:10:40.856Z,91.30
2022-08-01T02:12:07.671Z,91.39
2022-08-01T02:12:41.816Z,91.50
2022-08-01T02:13:40.815Z,91.39
2022-08-01T02:14:40.787Z,91.09
2022-08-01T02:16:00.171Z,90.89
2022-08-01T02:16:41.762Z,91.09
2022-08-01T02:17:40.771Z,90.89
2022-08-01T02:18:40.761Z,90.59
2022-08-01T02:19:40.763Z,90.89
2022-08-01T02:20:40.741Z,90.89
2022-08-01T02:21:40.737Z,90.79
2022-08-01T02:22:40.717Z,90.39
2022-08-01T02:23:40.702Z,90.19
2022-08-01T02:24:40.684Z,90.19
2022-08-01T02:25:40.662Z,90.19
2022-08-01T02:26:41.665Z,90.19
2022-08-01T02:27:40.651Z,90.19
2022-08-01T02:28:40.641Z,90.19
2022-08-01T02:29:40.668Z,90.09
2022-08-01T02:30:40.605Z,90.09
2022-08-01T02:31:40.607Z,89.99
2022-08-01T02:32:40.610Z,90.09
2022-08-01T02:33:40.579Z,90.09
2022-08-01T02:34:40.574Z,90.09
2022-08-01T02:36:30.452Z,89.99
2022-08-01T02:36:41.560Z,90.09
2022-08-01T02:37:41.684Z,90.39
2022-08-01T02:38:40.529Z,90.29
2022-08-01T02:39:40.542Z,90.29
2022-08-01T02:40:40.495Z,89.79
2022-08-01T02:41:40.507Z,89.89
2022-08-01T02:42:40.480Z,90.09
2022-08-01T02:43:40.467Z,90.19
2022-08-01T02:44:40.470Z,90.29
2022-08-01T02:45:40.451Z,90.33
2022-08-01T02:46:40.462Z,90.33
2022-08-01T02:47:40.422Z,90.33
2022-08-01T02:48:40.405Z,90.53
2022-08-01T02:49:40.416Z,90.53
2022-08-01T02:50:40.403Z,90.84
2022-08-01T02:51:40.377Z,90.73
2022-08-01T02:52:40.369Z,90.84
2022-08-01T02:53:43.950Z,90.73
2022-08-01T02:54:40.342Z,90.84
2022-08-01T02:55:40.444Z,90.64
2022-08-01T02:56:40.378Z,90.44
2022-08-01T02:57:51.598Z,90.44
2022-08-01T02:58:41.294Z,90.44
2022-08-01T02:59:41.408Z,90.33
2022-08-01T03:00:40.294Z,90.33
2022-08-01T03:01:41.862Z,90.44
2022-08-01T03:02:40.263Z,90.73
2022-08-01T03:03:40.246Z,91.03
2022-08-01T03:04:40.236Z,91.24
2022-08-01T03:05:40.223Z,91.44
2022-08-01T03:06:40.229Z,91.34
2022-08-01T03:07:40.644Z,91.34
2022-08-01T03:08:40.189Z,91.54
2022-08-01T03:09:40.179Z,91.24
2022-08-01T03:10:40.181Z,91.28
2022-08-01T03:11:40.159Z,91.14
2022-08-01T03:12:40.284Z,91.03
2022-08-01T03:13:40.135Z,91.03
2022-08-01T03:14:40.117Z,90.53
2022-08-01T03:15:40.116Z,90.53
2022-08-01T03:16:40.113Z,90.64
2022-08-01T03:17:40.093Z,90.58
2022-08-01T03:18:40.092Z,90.68
2022-08-01T03:19:40.075Z,90.48
2022-08-01T03:20:40.044Z,89.98
2022-08-01T03:21:40.041Z,89.78
2022-08-01T03:22:40.047Z,89.87
2022-08-01T03:23:40.014Z,90.28
2022-08-01T03:24:40.032Z,90.08
2022-08-01T03:25:40.009Z,90.17
2022-08-01T03:26:39.999Z,90.28
2022-08-01T03:27:40.059Z,90.17
2022-08-01T03:28:40.031Z,90.58
2022-08-01T03:29:39.953Z,90.98
2022-08-01T03:30:39.945Z,90.88
2022-08-01T03:31:39.931Z,90.98
2022-08-01T03:32:39.929Z,90.88
2022-08-01T03:33:39.905Z,90.92
2022-08-01T03:34:39.894Z,91.13
2022-08-01T03:35:39.879Z,91.32
2022-08-01T03:36:39.881Z,91.42
2022-08-01T03:37:54.320Z,90.82
2022-08-01T03:38:40.877Z,91.02
2022-08-01T03:39:39.840Z,91.22
2022-08-01T03:40:39.824Z,91.22
2022-08-01T03:41:39.826Z,91.02
2022-08-01T03:42:40.769Z,91.13
2022-08-01T03:43:39.811Z,91.13
2022-08-01T03:44:39.785Z,91.02
2022-08-01T03:45:39.774Z,91.13
2022-08-01T03:46:39.766Z,90.92
2022-08-01T03:47:40.832Z,91.02
2022-08-01T03:48:40.755Z,90.92
2022-08-01T03:49:39.733Z,91.02
2022-08-01T03:50:39.717Z,90.82
2022-08-01T03:51:39.709Z,90.82
2022-08-01T03:52:39.697Z,90.62
2022-08-01T03:53:42.330Z,90.62
2022-08-01T03:54:39.667Z,90.62
2022-08-01T03:55:39.666Z,90.12
2022-08-01T03:56:39.658Z,90.12
2022-08-01T03:57:39.650Z,89.92
2022-08-01T03:58:39.640Z,90.02
2022-08-01T03:59:39.630Z,90.12
2022-08-01T04:00:39.629Z,90.12
2022-08-01T04:01:39.645Z,90.12
2022-08-01T04:02:39.593Z,89.92
2022-08-01T04:03:41.816Z,90.32
2022-08-01T04:04:39.562Z,90.52
2022-08-01T04:05:39.545Z,90.62
2022-08-01T04:06:39.554Z,90.72
2022-08-01T04:07:39.526Z,90.36
2022-08-01T04:08:39.541Z,89.76
2022-08-01T04:09:39.505Z,90.16
2022-08-01T04:10:39.521Z,90.26
2022-08-01T04:11:39.491Z,90.46
2022-08-01T04:12:39.479Z,90.46
2022-08-01T04:13:39.464Z,90.46
2022-08-01T04:14:39.476Z,90.46
2022-08-01T04:15:39.442Z,90.16
2022-08-01T04:16:39.428Z,90.06
2022-08-01T04:17:39.433Z,89.96
2022-08-01T04:18:39.406Z,90.02
2022-08-01T04:19:39.408Z,90.12
2022-08-01T04:20:39.417Z,90.12
2022-08-01T04:21:39.399Z,90.52
2022-08-01T04:22:39.367Z,90.12
2022-08-01T04:23:39.355Z,90.02
2022-08-01T04:24:39.349Z,90.12
2022-08-01T04:25:39.346Z,90.02
2022-08-01T04:26:39.320Z,90.02
2022-08-01T04:27:48.441Z,89.92
2022-08-01T04:28:40.301Z,89.42
2022-08-01T04:29:39.291Z,89.42
2022-08-01T04:30:39.298Z,89.11
2022-08-01T04:31:39.273Z,89.42
2022-08-01T04:32:40.197Z,89.51
2022-08-01T04:33:39.237Z,89.72
2022-08-01T04:34:39.234Z,89.82
2022-08-01T04:36:03.376Z,89.51
2022-08-01T04:36:40.213Z,88.71
2022-08-01T04:37:39.194Z,88.61
2022-08-01T04:38:41.172Z,88.81
2022-08-01T04:39:50.689Z,88.71
2022-08-01T04:40:40.155Z,88.61
2022-08-01T04:41:39.166Z,88.91
2022-08-01T04:42:39.140Z,89.11
2022-08-01T04:43:39.154Z,89.31
2022-08-01T04:44:39.129Z,89.22
2022-08-01T04:45:39.103Z,89.11
2022-08-01T04:46:39.109Z,89.22
2022-08-01T04:47:39.078Z,89.31
2022-08-01T04:48:39.071Z,89.42
2022-08-01T04:49:48.798Z,89.42
2022-08-01T04:50:40.060Z,89.31
2022-08-01T04:51:39.061Z,89.22
2022-08-01T04:52:39.689Z,89.31
2022-08-01T04:53:39.357Z,89.42
2022-08-01T04:54:39.003Z,89.62
2022-08-01T04:55:38.987Z,90.12
2022-08-01T04:56:38.992Z,90.32
2022-08-01T04:57:38.988Z,89.72
2022-08-01T04:58:39.921Z,89.51
2022-08-01T04:59:38.963Z,89.51
2022-08-01T05:00:40.889Z,89.42
2022-08-01T05:01:39.169Z,89.31
2022-08-01T05:02:40.899Z,89.22
2022-08-01T05:03:41.380Z,89.22
2022-08-01T05:04:40.870Z,89.31
2022-08-01T05:05:39.715Z,89.42
2022-08-01T05:06:39.456Z,89.62
2022-08-01T05:07:45.235Z,89.72
2022-08-01T05:08:39.856Z,89.62
2022-08-01T05:09:39.445Z,89.62
2022-08-01T05:10:38.846Z,89.62
2022-08-01T05:11:38.834Z,89.82
2022-08-01T05:12:39.454Z,90.22
2022-08-01T05:13:38.789Z,89.87
2022-08-01T05:14:38.802Z,89.78
2022-08-01T05:15:38.818Z,89.58
2022-08-01T05:16:38.792Z,89.58
2022-08-01T05:17:38.755Z,89.47
2022-08-01T05:18:38.762Z,89.22
2022-08-01T05:19:38.731Z,89.51
2022-08-01T05:20:38.723Z,89.51
2022-08-01T05:21:38.706Z,89.42
2022-08-01T05:22:38.692Z,89.62
2022-08-01T05:23:42.878Z,89.51
2022-08-01T05:24:38.673Z,89.27
2022-08-01T05:25:56.627Z,89.07
2022-08-01T05:26:39.645Z,88.87
2022-08-01T05:27:38.644Z,88.37
2022-08-01T05:28:38.687Z,88.37
2022-08-01T05:29:44.236Z,88.67
2022-08-01T05:30:39.614Z,88.77
2022-08-01T05:31:38.703Z,88.57
2022-08-01T05:32:38.610Z,88.47
2022-08-01T05:33:38.589Z,88.57
2022-08-01T05:34:40.530Z,88.27
2022-08-01T05:35:48.873Z,87.96
2022-08-01T05:36:39.559Z,87.93
2022-08-01T05:37:40.532Z,88.23
2022-08-01T05:38:38.542Z,88.12
2022-08-01T05:39:38.559Z,87.82
2022-08-01T05:40:38.511Z,88.02
2022-08-01T05:41:38.581Z,88.27
2022-08-01T05:42:38.574Z,88.57
2022-08-01T05:43:38.492Z,88.87
2022-08-01T05:44:38.472Z,88.97
2022-08-01T05:45:38.440Z,88.63
2022-08-01T05:46:38.450Z,88.57
2022-08-01T05:47:38.412Z,88.57
2022-08-01T05:48:38.494Z,88.37
2022-08-01T05:49:38.579Z,88.37
2022-08-01T05:50:38.396Z,88.67
2022-08-01T05:51:38.403Z,88.87
2022-08-01T05:52:38.452Z,88.77
2022-08-01T05:53:38.371Z,89.17
2022-08-01T05:54:38.336Z,88.97
2022-08-01T05:55:38.356Z,89.27
2022-08-01T05:56:38.381Z,89.37
2022-08-01T05:57:39.202Z,89.17
2022-08-01T05:58:38.307Z,88.97
2022-08-01T05:59:38.304Z,88.83
2022-08-01T06:00:38.578Z,88.43
2022-08-01T06:01:38.328Z,88.23
2022-08-01T06:02:38.670Z,88.43
2022-08-01T06:03:38.258Z,88.32
2022-08-01T06:04:38.238Z,88.43
2022-08-01T06:05:38.220Z,88.53
2022-08-01T06:06:38.214Z,88.32
2022-08-01T06:07:38.549Z,88.12
2022-08-01T06:08:38.632Z,88.02
2022-08-01T06:09:38.287Z,87.93
2022-08-01T06:10:38.195Z,87.73
2022-08-01T06:11:38.164Z,87.62
2022-08-01T06:12:38.148Z,87.62
2022-08-01T06:13:44.977Z,87.73
2022-08-01T06:14:39.123Z,87.82
2022-08-01T06:15:38.096Z,87.93
2022-08-01T06:16:38.155Z,87.73
2022-08-01T06:17:38.101Z,87.42
2022-08-01T06:18:38.107Z,87.22
2022-08-01T06:19:38.076Z,86.82
2022-08-01T06:20:38.540Z,86.82
2022-08-01T06:21:38.050Z,87.02
2022-08-01T06:22:38.082Z,86.72
2022-08-01T06:23:38.024Z,86.82
2022-08-01T06:24:38.043Z,87.77
2022-08-01T06:25:38.059Z,87.87
2022-08-01T06:26:37.989Z,88.17
2022-08-01T06:27:37.962Z,88.47
2022-08-01T06:28:37.970Z,88.37
2022-08-01T06:29:37.995Z,88.87
2022-08-01T06:30:37.934Z,87.87
2022-08-01T06:31:37.929Z,87.77
2022-08-01T06:32:37.932Z,87.73
2022-08-01T06:33:37.901Z,87.73
2022-08-01T06:34:37.908Z,87.73
2022-08-01T06:35:37.882Z,87.52
2022-08-01T06:36:37.881Z,87.12
2022-08-01T06:37:37.872Z,87.12
2022-08-01T06:38:37.846Z,86.92
2022-08-01T06:39:37.844Z,86.92
2022-08-01T06:40:37.826Z,87.73
2022-08-01T06:41:37.822Z,87.62
2022-08-01T06:42:37.819Z,87.62
2022-08-01T06:43:37.795Z,87.32
2022-08-01T06:44:37.795Z,87.08
2022-08-01T06:45:37.770Z,86.98
2022-08-01T06:46:37.754Z,87.18
2022-08-01T06:47:37.770Z,87.08
2022-08-01T06:48:37.784Z,87.38
2022-08-01T06:49:37.919Z,86.68
2022-08-01T06:50:37.708Z,86.28
2022-08-01T06:51:37.704Z,86.18
2022-08-01T06:52:37.699Z,86.08
2022-08-01T06:53:37.687Z,86.04
2022-08-01T06:54:37.680Z,85.83
2022-08-01T06:55:37.670Z,86.14
2022-08-01T06:56:37.647Z,86.14
2022-08-01T06:57:37.630Z,86.24
2022-08-01T06:58:37.635Z,86.54
2022-08-01T06:59:37.622Z,86.54
2022-08-01T07:00:37.657Z,86.84
2022-08-01T07:01:37.640Z,87.14
2022-08-01T07:02:37.602Z,87.04
2022-08-01T07:03:53.280Z,87.24
2022-08-01T07:04:38.586Z,87.44
2022-08-01T07:05:37.565Z,87.44
2022-08-01T07:06:37.568Z,87.24
2022-08-01T07:07:37.531Z,87.04
2022-08-01T07:08:37.527Z,86.69
2022-08-01T07:09:37.496Z,86.69
2022-08-01T07:10:37.516Z,86.60
2022-08-01T07:11:37.508Z,86.60
2022-08-01T07:12:37.492Z,86.40
2022-08-01T07:13:45.644Z,86.19
2022-08-01T07:14:38.467Z,86.69
2022-08-01T07:15:37.460Z,86.10
2022-08-01T07:16:37.451Z,86.10
2022-08-01T07:17:37.444Z,86.10
2022-08-01T07:18:37.425Z,86.25
2022-08-01T07:19:38.591Z,86.16
2022-08-01T07:20:51.033Z,86.05
2022-08-01T07:21:41.221Z,85.55
2022-08-01T07:22:37.373Z,84.35
2022-08-01T07:23:37.405Z,84.25
2022-08-01T07:24:38.365Z,84.45
2022-08-01T07:25:38.334Z,84.35
2022-08-01T07:26:37.338Z,84.85
2022-08-01T07:27:37.333Z,85.05
2022-08-01T07:28:37.309Z,85.35
2022-08-01T07:29:38.292Z,84.85
2022-08-01T07:30:37.275Z,84.75
2022-08-01T07:31:37.257Z,84.55
2022-08-01T07:32:37.260Z,84.45
2022-08-01T07:33:48.540Z,84.25
2022-08-01T07:34:38.271Z,84.11
2022-08-01T07:35:37.210Z,83.81
2022-08-01T07:36:37.210Z,83.61
2022-08-01T07:37:47.797Z,82.41
2022-08-01T07:38:38.186Z,81.81
2022-08-01T07:39:37.182Z,82.41
2022-08-01T07:40:37.165Z,82.61
2022-08-01T07:42:02.985Z,82.71
2022-08-01T07:42:38.149Z,81.61
2022-08-01T07:43:37.136Z,81.81
2022-08-01T07:44:37.151Z,82.41
2022-08-01T07:45:37.101Z,82.71
2022-08-01T07:46:37.200Z,82.91
2022-08-01T07:47:37.081Z,82.31
2022-08-01T07:48:37.092Z,82.51
2022-08-01T07:49:40.227Z,82.61
2022-08-01T07:50:37.055Z,83.05
2022-08-01T07:51:37.039Z,83.45
2022-08-01T07:52:37.031Z,83.75
2022-08-01T07:53:37.031Z,83.75
2022-08-01T07:54:37.034Z,83.55
2022-08-01T07:55:37.011Z,83.49
2022-08-01T07:56:36.995Z,84.39
2022-08-01T07:57:36.966Z,85.39
2022-08-01T07:58:36.981Z,85.49
2022-08-01T07:59:37.536Z,85.49
2022-08-01T08:00:37.915Z,85.39
2022-08-01T08:01:36.995Z,85.19
2022-08-01T08:02:36.933Z,85.10
2022-08-01T08:03:36.909Z,85.25
2022-08-01T08:04:36.892Z,84.95
2022-08-01T08:05:57.771Z,85.05
2022-08-01T08:06:37.872Z,84.95
2022-08-01T08:07:36.870Z,84.65
2022-08-01T08:08:36.839Z,84.65
2022-08-01T08:09:37.221Z,84.45
2022-08-01T08:10:36.864Z,84.61
2022-08-01T08:11:36.815Z,84.61
2022-08-01T08:12:36.850Z,83.51
2022-08-01T08:13:36.790Z,83.31
2022-08-01T08:14:36.790Z,82.91
2022-08-01T08:15:36.782Z,83.11
2022-08-01T08:16:36.763Z,82.81
2022-08-01T08:17:36.779Z,81.41
2022-08-01T08:18:36.744Z,81.81
2022-08-01T08:19:37.672Z,81.91
2022-08-01T08:20:36.710Z,82.01
2022-08-01T08:21:36.718Z,81.81
2022-08-01T08:22:36.694Z,81.67
2022-08-01T08:23:42.072Z,81.47
2022-08-01T08:24:45.623Z,81.37
2022-08-01T08:25:37.664Z,81.03
2022-08-01T08:26:36.656Z,80.83
2022-08-01T08:27:37.514Z,80.53
2022-08-01T08:28:36.646Z,80.53
2022-08-01T08:29:36.605Z,80.33
2022-08-01T08:30:36.600Z,80.23
2022-08-01T08:31:51.436Z,80.13
2022-08-01T08:32:37.609Z,80.13
2022-08-01T08:33:36.596Z,80.33
2022-08-01T08:34:36.551Z,80.13
2022-08-01T08:35:53.336Z,80.23
2022-08-01T08:36:37.552Z,79.83
2022-08-01T08:37:39.247Z,79.83
2022-08-01T08:38:37.527Z,78.83
2022-08-01T08:39:41.660Z,79.03
2022-08-01T08:40:37.483Z,78.93
2022-08-01T08:41:37.670Z,78.89
2022-08-01T08:42:36.477Z,78.59
2022-08-01T08:43:36.464Z,78.99
2022-08-01T08:44:36.467Z,79.29
2022-08-01T08:45:58.690Z,79.39
2022-08-01T08:46:37.422Z,79.49
2022-08-01T08:47:36.446Z,79.65
2022-08-01T08:48:36.403Z,79.35
2022-08-01T08:49:36.632Z,79.46
2022-08-01T08:50:36.368Z,79.75
2022-08-01T08:51:36.371Z,79.85
2022-08-01T08:52:36.349Z,80.15
2022-08-01T08:53:36.340Z,80.15
2022-08-01T08:54:36.340Z,79.55
2022-08-01T08:55:56.342Z,79.61
2022-08-01T08:56:37.310Z,79.32
2022-08-01T08:57:36.320Z,79.22
2022-08-01T08:58:36.286Z,79.32
2022-08-01T08:59:36.296Z,79.52
2022-08-01T09:00:36.262Z,78.72
2022-08-01T09:01:36.324Z,77.95
2022-08-01T09:02:36.271Z,78.45
2022-08-01T09:03:36.297Z,78.36
2022-08-01T09:04:36.231Z,77.75
2022-08-01T09:05:39.197Z,77.86
2022-08-01T09:06:36.212Z,78.55
2022-08-01T09:07:36.215Z,77.86
2022-08-01T09:08:36.182Z,78.09
2022-08-01T09:09:36.174Z,78.29
2022-08-01T09:10:37.188Z,78.19
2022-08-01T09:11:36.148Z,78.49
2022-08-01T09:12:36.178Z,78.69
2022-08-01T09:13:36.129Z,78.69
2022-08-01T09:14:36.134Z,78.25
2022-08-01T09:15:36.128Z,78.25
2022-08-01T09:16:36.094Z,77.75
2022-08-01T09:17:36.087Z,77.86
2022-08-01T09:18:36.089Z,77.86
2022-08-01T09:19:39.488Z,77.86
2022-08-01T09:20:37.060Z,77.62
2022-08-01T09:21:36.036Z,77.02
2022-08-01T09:22:36.020Z,77.12
2022-08-01T09:23:36.077Z,77.02
2022-08-01T09:24:36.042Z,76.52
2022-08-01T09:25:45.988Z,76.02
2022-08-01T09:26:36.993Z,75.98
2022-08-01T09:27:35.991Z,75.89
2022-08-01T09:28:38.072Z,75.89
2022-08-01T09:29:38.386Z,75.25
2022-08-01T09:30:36.931Z,74.85
2022-08-01T09:31:38.291Z,75.05
2022-08-01T09:32:37.530Z,74.95
2022-08-01T09:33:37.072Z,74.85
2022-08-01T09:34:36.369Z,75.35
2022-08-01T09:35:43.512Z,76.68
2022-08-01T09:36:36.902Z,75.89
2022-08-01T09:37:37.838Z,76.38
2022-08-01T09:38:36.929Z,76.98
2022-08-01T09:39:36.496Z,76.58
2022-08-01T09:40:35.858Z,76.58
2022-08-01T09:41:40.232Z,77.08
2022-08-01T09:42:35.888Z,77.92
2022-08-01T09:43:37.763Z,78.12
2022-08-01T09:44:42.597Z,78.22
2022-08-01T09:45:41.528Z,78.02
2022-08-01T09:46:36.779Z,77.58
2022-08-01T09:47:35.747Z,76.98
2022-08-01T09:48:35.758Z,76.28
2022-08-01T09:49:49.669Z,75.74
2022-08-01T09:50:36.727Z,74.85
2022-08-01T09:51:57.796Z,74.55
2022-08-01T09:52:36.687Z,74.35
2022-08-01T09:53:36.038Z,74.35
2022-08-01T09:54:35.668Z,74.35
2022-08-01T09:55:35.654Z,74.55
2022-08-01T09:56:35.660Z,74.29
2022-08-01T09:57:35.637Z,74.98
2022-08-01T09:58:35.642Z,75.28
2022-08-01T09:59:56.742Z,74.08
2022-08-01T10:00:45.156Z,74.52
2022-08-01T10:01:38.574Z,74.12
2022-08-01T10:02:35.604Z,74.62
2022-08-01T10:03:35.651Z,74.82
2022-08-01T10:04:35.572Z,75.02
2022-08-01T10:05:36.949Z,75.12
2022-08-01T10:06:35.560Z,75.18
2022-08-01T10:07:42.726Z,74.98
2022-08-01T10:08:36.520Z,74.88
2022-08-01T10:09:35.823Z,74.38
2022-08-01T10:10:37.298Z,74.58
2022-08-01T10:11:36.114Z,74.49
2022-08-01T10:12:35.479Z,74.79
2022-08-01T10:13:36.968Z,74.58
2022-08-01T10:14:35.448Z,75.12
2022-08-01T10:15:36.802Z,76.02
2022-08-01T10:16:35.419Z,76.86
2022-08-01T10:17:50.501Z,76.86
2022-08-01T10:18:36.403Z,77.06
2022-08-01T10:19:35.387Z,77.25
2022-08-01T10:20:37.821Z,76.95
2022-08-01T10:21:53.170Z,76.65
2022-08-01T10:22:36.515Z,76.56
2022-08-01T10:23:35.344Z,76.42
2022-08-01T10:24:36.359Z,76.42
2022-08-01T10:25:42.926Z,76.86
2022-08-01T10:26:36.307Z,77.45
2022-08-01T10:27:40.175Z,77.89
2022-08-01T10:28:35.283Z,77.89
2022-08-01T10:29:59.281Z,77.86
2022-08-01T10:30:36.272Z,77.86
2022-08-01T10:31:35.246Z,78.49
2022-08-01T10:32:35.242Z,78.89
2022-08-01T10:33:51.574Z,78.45
2022-08-01T10:34:36.221Z,78.36
2022-08-01T10:35:47.480Z,77.95
2022-08-01T10:36:36.195Z,77.22
2022-08-01T10:37:35.184Z,77.22
2022-08-01T10:38:35.164Z,76.62
2022-08-01T10:39:35.162Z,76.82
2022-08-01T10:40:35.177Z,76.52
2022-08-01T10:41:35.149Z,76.32
2022-08-01T10:42:35.121Z,76.48
2022-08-01T10:43:35.474Z,76.82
2022-08-01T10:44:35.101Z,77.12
2022-08-01T10:45:35.113Z,75.78
2022-08-01T10:46:35.081Z,74.49
2022-08-01T10:47:50.034Z,74.05
2022-08-01T10:48:36.064Z,74.25
2022-08-01T10:49:35.087Z,74.25
2022-08-01T10:50:35.053Z,74.11
2022-08-01T10:51:52.186Z,74.32
2022-08-01T10:52:39.572Z,72.92
2022-08-01T10:53:43.051Z,72.62
2022-08-01T10:54:36.001Z,72.92
2022-08-01T10:55:35.000Z,73.11
2022-08-01T10:56:34.992Z,72.72
2022-08-01T10:57:34.980Z,71.69
2022-08-01T10:58:39.861Z,70.72
2022-08-01T10:59:50.135Z,71.52
2022-08-01T11:00:35.934Z,70.83
2022-08-01T11:01:37.814Z,70.42
2022-08-01T11:02:35.337Z,70.49
2022-08-01T11:03:55.560Z,70.59
2022-08-01T11:04:35.987Z,69.20
2022-08-01T11:05:34.887Z,68.19
2022-08-01T11:06:34.891Z,68.90
2022-08-01T11:07:35.077Z,69.53
2022-08-01T11:08:34.845Z,69.59
2022-08-01T11:09:37.259Z,69.59
2022-08-01T11:10:34.808Z,69.49
2022-08-01T11:11:37.428Z,69.29
2022-08-01T11:12:34.818Z,69.09
2022-08-01T11:13:34.796Z,69.46
2022-08-01T11:14:54.789Z,69.66
2022-08-01T11:15:35.772Z,69.26
2022-08-01T11:16:34.739Z,68.90
2022-08-01T11:17:37.588Z,69.69
2022-08-01T11:18:37.714Z,70.69
2022-08-01T11:19:34.725Z,70.42
2022-08-01T11:20:34.714Z,71.32
2022-08-01T11:21:58.475Z,71.12
2022-08-01T11:22:35.685Z,70.92
2022-08-01T11:23:36.305Z,71.02
2022-08-01T11:24:34.675Z,70.83
2022-08-01T11:26:03.187Z,70.69
2022-08-01T11:26:35.628Z,71.02
2022-08-01T11:27:34.697Z,70.89
2022-08-01T11:28:36.608Z,70.09
2022-08-01T11:29:34.610Z,69.29
2022-08-01T11:30:34.593Z,68.19
2022-08-01T11:31:37.862Z,67.50
2022-08-01T11:32:47.270Z,67.30
2022-08-01T11:33:35.572Z,66.60
2022-08-01T11:34:34.564Z,66.50
2022-08-01T11:35:34.547Z,66.87
2022-08-01T11:36:58.130Z,66.37
2022-08-01T11:37:35.536Z,66.34
2022-08-01T11:38:34.493Z,65.51
2022-08-01T11:39:38.827Z,64.78
2022-08-01T11:40:34.469Z,63.22
2022-08-01T11:41:38.102Z,62.72
2022-08-01T11:42:34.454Z,63.39
2022-08-01T11:43:34.435Z,62.89
2022-08-01T11:44:34.423Z,63.39
2022-08-01T11:45:34.420Z,63.06
2022-08-01T11:46:34.437Z,63.16
2022-08-01T11:47:36.524Z,63.13
2022-08-01T11:48:34.496Z,63.13
2022-08-01T11:49:34.425Z,63.16
2022-08-01T11:50:34.364Z,63.36
2022-08-01T11:51:35.927Z,63.73
2022-08-01T11:52:34.645Z,63.43
2022-08-01T11:53:34.350Z,63.53
2022-08-01T11:54:35.596Z,63.30
2022-08-01T11:55:34.316Z,62.67
2022-08-01T11:56:34.299Z,62.18
2022-08-01T11:57:35.657Z,61.68
2022-08-01T11:58:34.269Z,61.75
2022-08-01T11:59:38.222Z,61.65
2022-08-01T12:00:35.268Z,61.98
2022-08-01T12:01:34.253Z,62.15
2022-08-01T12:02:34.283Z,61.94
2022-08-01T12:03:34.796Z,61.85
2022-08-01T12:04:34.206Z,61.85
2022-08-01T12:05:34.206Z,62.27
2022-08-01T12:06:34.169Z,62.37
2022-08-01T12:07:34.181Z,62.47
2022-08-01T12:08:34.168Z,63.63
2022-08-01T12:09:34.151Z,64.95
2022-08-01T12:10:34.264Z,67.24
2022-08-01T12:11:37.236Z,68.86
2022-08-01T12:12:34.118Z,71.09
2022-08-01T12:13:34.117Z,72.11
2022-08-01T12:14:35.044Z,72.45
2022-08-01T12:15:34.079Z,74.62
2022-08-01T12:16:34.089Z,75.71
2022-08-01T12:17:34.071Z,75.95
2022-08-01T12:18:34.086Z,78.08
2022-08-01T12:19:34.049Z,79.22
2022-08-01T12:20:34.015Z,80.51
2022-08-01T12:21:34.968Z,80.45
2022-08-01T12:22:33.996Z,80.51
2022-08-01T12:23:34.013Z,78.61
2022-08-01T12:24:33.989Z,78.12
2022-08-01T12:25:33.974Z,79.52
2022-08-01T12:26:34.912Z,79.22
2022-08-01T12:27:33.987Z,79.28
2022-08-01T12:28:33.935Z,79.58
2022-08-01T12:29:33.936Z,77.68
2022-08-01T12:30:33.935Z,78.18
2022-08-01T12:31:34.879Z,76.58
2022-08-01T12:32:35.569Z,76.84
2022-08-01T12:33:35.276Z,76.84
2022-08-01T12:34:33.874Z,77.84
2022-08-01T12:35:33.859Z,77.44
2022-08-01T12:36:33.853Z,77.04
2022-08-01T12:37:33.824Z,77.58
2022-08-01T12:38:33.841Z,78.18
2022-08-01T12:39:33.805Z,77.58
2022-08-01T12:40:33.829Z,77.38
2022-08-01T12:41:33.797Z,77.48
2022-08-01T12:42:33.782Z,76.58
2022-08-01T12:43:33.794Z,76.68
2022-08-01T12:44:33.817Z,76.84
2022-08-01T12:45:34.709Z,76.65
2022-08-01T12:46:33.735Z,75.65
2022-08-01T12:47:33.724Z,74.55
2022-08-01T12:48:33.763Z,73.95
2022-08-01T12:49:33.791Z,74.85
2022-08-01T12:50:33.699Z,73.88
2022-08-01T12:51:33.683Z,73.88
2022-08-01T12:52:33.684Z,74.38